createdAt,value
2024-05-09T00:00:49.341Z,6.20
2024-05-09T00:03:43.642Z,4.40
2024-05-09T00:06:13.426Z,4.70
2024-05-09T00:08:42.720Z,7.00
2024-05-09T00:11:16.107Z,6.00
2024-05-09T00:13:45.297Z,5.40
2024-05-09T00:16:14.037Z,3.30
2024-05-09T00:18:43.441Z,5.30
2024-05-09T00:21:13.156Z,5.20
2024-05-09T00:23:42.347Z,5.20
2024-05-09T00:26:15.418Z,4.40
2024-05-09T00:28:44.499Z,7.20
2024-05-09T00:31:13.544Z,5.30
2024-05-09T00:33:42.549Z,4.70
2024-05-09T00:36:11.835Z,4.40
2024-05-09T00:38:47.322Z,6.50
2024-05-09T00:41:18.890Z,8.30
2024-05-09T00:43:48.241Z,5.10
2024-05-09T00:46:17.674Z,6.10
2024-05-09T00:48:47.201Z,8.00
2024-05-09T00:51:17.029Z,9.50
2024-05-09T00:53:47.081Z,5.80
2024-05-09T00:56:16.805Z,4.70
2024-05-09T00:58:45.975Z,5.20
2024-05-09T01:01:18.861Z,3.90
2024-05-09T01:03:51.194Z,4.50
2024-05-09T01:06:21.225Z,6.30
2024-05-09T01:08:50.737Z,5.50
2024-05-09T01:11:20.690Z,5.10
2024-05-09T01:13:49.838Z,5.20
2024-05-09T01:16:18.490Z,5.70
2024-05-09T01:18:47.686Z,4.90
2024-05-09T01:21:17.150Z,7.80
2024-05-09T01:23:46.406Z,5.80
2024-05-09T01:26:15.199Z,8.10
2024-05-09T01:28:44.397Z,5.50
2024-05-09T01:31:15.752Z,5.00
2024-05-09T01:33:44.970Z,4.70
2024-05-09T01:36:14.178Z,5.90
2024-05-09T01:38:42.769Z,4.40
2024-05-09T01:41:11.925Z,5.30
2024-05-09T01:43:41.032Z,5.50
2024-05-09T01:46:15.070Z,5.00
2024-05-09T01:48:44.356Z,4.20
2024-05-09T01:51:13.574Z,7.40
2024-05-09T01:53:43.546Z,6.60
2024-05-09T01:56:12.752Z,5.80
2024-05-09T01:58:41.955Z,5.70
2024-05-09T02:01:11.368Z,5.80
2024-05-09T02:03:40.739Z,6.70
2024-05-09T02:06:09.732Z,6.90
2024-05-09T02:08:39.236Z,11.20
2024-05-09T02:11:10.394Z,5.80
2024-05-09T02:13:41.243Z,5.40
2024-05-09T02:16:14.464Z,8.40
2024-05-09T02:18:43.600Z,7.40
2024-05-09T02:21:12.831Z,6.70
2024-05-09T02:23:42.017Z,6.50
2024-05-09T02:26:11.299Z,6.70
2024-05-09T02:28:40.622Z,7.60
2024-05-09T02:31:13.168Z,6.40
2024-05-09T02:33:42.377Z,6.50
2024-05-09T02:36:12.413Z,5.80
2024-05-09T02:38:41.525Z,6.00
2024-05-09T02:41:10.867Z,5.70
2024-05-09T02:43:40.135Z,8.40
2024-05-09T02:46:09.236Z,4.70
2024-05-09T02:48:38.461Z,8.50
2024-05-09T02:51:07.581Z,6.20
2024-05-09T02:53:36.200Z,6.10
2024-05-09T02:56:05.888Z,8.20
2024-05-09T02:58:34.972Z,6.70
2024-05-09T03:01:04.089Z,8.90
2024-05-09T03:03:33.596Z,10.00
2024-05-09T03:06:02.522Z,4.90
2024-05-09T03:08:31.684Z,10.70
2024-05-09T03:11:00.430Z,5.40
2024-05-09T03:13:29.546Z,6.70
2024-05-09T03:15:59.852Z,6.50
2024-05-09T03:18:28.945Z,5.10
2024-05-09T03:20:58.132Z,7.20
2024-05-09T03:23:26.809Z,7.40
2024-05-09T03:25:55.869Z,4.80
2024-05-09T03:28:24.487Z,8.40
2024-05-09T03:30:53.009Z,6.00
2024-05-09T03:33:22.556Z,5.50
2024-05-09T03:35:51.849Z,4.60
2024-05-09T03:38:20.505Z,5.60
2024-05-09T03:40:50.887Z,7.30
2024-05-09T03:43:20.315Z,5.00
2024-05-09T03:45:50.536Z,9.90
2024-05-09T03:48:20.132Z,5.80
2024-05-09T03:50:50.390Z,5.60
2024-05-09T03:53:19.673Z,8.10
2024-05-09T03:55:49.700Z,6.10
2024-05-09T03:58:19.030Z,6.10
2024-05-09T04:00:48.369Z,10.20
2024-05-09T04:03:17.188Z,5.90
2024-05-09T04:05:46.631Z,8.30
2024-05-09T04:08:15.789Z,3.50
2024-05-09T04:10:45.185Z,7.80
2024-05-09T04:13:14.343Z,6.30
2024-05-09T04:15:43.298Z,8.10
2024-05-09T04:18:12.746Z,6.90
2024-05-09T04:20:41.661Z,6.00
2024-05-09T04:23:13.557Z,7.90
2024-05-09T04:25:45.078Z,7.20
2024-05-09T04:28:14.798Z,6.10
2024-05-09T04:30:43.961Z,5.50
2024-05-09T04:33:14.788Z,4.50
2024-05-09T04:35:45.126Z,4.60
2024-05-09T04:38:15.493Z,4.60
2024-05-09T04:40:45.177Z,8.10
2024-05-09T04:43:16.709Z,10.60
2024-05-09T04:45:45.752Z,6.80
2024-05-09T04:48:16.044Z,5.60
2024-05-09T04:50:45.438Z,8.80
2024-05-09T04:53:17.361Z,5.40
2024-05-09T04:55:46.822Z,7.60
2024-05-09T04:58:16.018Z,6.40
2024-05-09T05:00:44.732Z,6.80
2024-05-09T05:03:16.068Z,5.20
2024-05-09T05:05:48.195Z,6.40
2024-05-09T05:08:18.876Z,3.80
2024-05-09T05:10:49.119Z,5.90
2024-05-09T05:13:24.682Z,5.80
2024-05-09T05:15:56.780Z,6.20
2024-05-09T05:20:58.523Z,6.00
2024-05-09T05:23:27.859Z,4.30
2024-05-09T05:25:57.142Z,4.40
2024-05-09T05:28:26.453Z,4.10
2024-05-09T05:30:55.369Z,5.50
2024-05-09T05:33:24.644Z,3.70
2024-05-09T05:35:53.722Z,4.00
2024-05-09T05:38:26.040Z,7.00
2024-05-09T05:40:57.076Z,6.10
2024-05-09T05:43:26.251Z,5.80
2024-05-09T05:45:54.872Z,5.90
2024-05-09T05:48:24.074Z,8.40
2024-05-09T05:50:53.186Z,5.40
2024-05-09T05:53:22.431Z,4.30
2024-05-09T05:55:51.700Z,4.70
2024-05-09T05:58:21.458Z,4.60
2024-05-09T06:00:52.828Z,4.50
2024-05-09T06:03:22.046Z,4.70
2024-05-09T06:05:51.101Z,5.40
2024-05-09T06:08:20.413Z,3.80
2024-05-09T06:10:49.847Z,3.90
2024-05-09T06:13:20.300Z,4.10
2024-05-09T06:15:49.419Z,5.50
2024-05-09T06:18:18.772Z,4.60
2024-05-09T06:20:47.684Z,4.00
2024-05-09T06:23:16.959Z,4.50
2024-05-09T06:25:45.638Z,4.90
2024-05-09T06:28:14.793Z,4.20
2024-05-09T06:30:43.944Z,6.90
2024-05-09T06:33:15.335Z,5.70
2024-05-09T06:35:46.082Z,7.10
2024-05-09T06:38:15.410Z,3.80
2024-05-09T06:40:45.019Z,5.60
2024-05-09T06:43:17.124Z,4.20
2024-05-09T06:45:54.011Z,3.10
2024-05-09T06:48:23.467Z,4.00
2024-05-09T06:50:52.746Z,3.90
2024-05-09T06:53:23.285Z,3.50
2024-05-09T06:55:52.596Z,5.60
2024-05-09T06:58:21.799Z,4.10
2024-05-09T07:00:50.609Z,6.00
2024-05-09T07:03:20.153Z,7.20
2024-05-09T07:05:50.108Z,3.80
2024-05-09T07:08:19.681Z,4.70
2024-05-09T07:10:49.524Z,4.90
2024-05-09T07:13:18.672Z,7.50
2024-05-09T07:15:47.654Z,8.10
2024-05-09T07:18:18.298Z,3.50
2024-05-09T07:20:49.592Z,7.80
2024-05-09T07:23:19.874Z,5.10
2024-05-09T07:25:49.104Z,4.40
2024-05-09T07:28:21.260Z,4.50
2024-05-09T07:30:50.344Z,2.80
2024-05-09T07:33:22.479Z,5.10
2024-05-09T07:35:52.693Z,7.00
2024-05-09T07:38:22.298Z,2.20
2024-05-09T07:40:51.596Z,4.50
2024-05-09T07:43:20.754Z,5.20
2024-05-09T07:45:53.684Z,2.50
2024-05-09T07:52:45.983Z,3.40
2024-05-09T07:53:50.780Z,9.10
2024-05-09T07:56:23.946Z,4.30
2024-05-09T07:58:54.515Z,5.50
2024-05-09T08:01:26.352Z,4.00
2024-05-09T08:03:55.829Z,1.80
2024-05-09T08:06:25.473Z,3.20
2024-05-09T08:08:54.528Z,2.80
2024-05-09T08:11:23.914Z,2.70
2024-05-09T08:13:53.087Z,9.10
2024-05-09T08:16:22.730Z,5.10
2024-05-09T08:18:52.142Z,1.90
2024-05-09T08:21:21.279Z,7.80
2024-05-09T08:23:50.001Z,6.90
2024-05-09T08:26:19.226Z,6.50
2024-05-09T08:28:48.738Z,5.00
2024-05-09T08:31:17.769Z,3.90
2024-05-09T08:33:47.942Z,2.50
2024-05-09T08:36:17.868Z,2.30
2024-05-09T08:38:47.034Z,3.70
2024-05-09T08:41:15.973Z,4.00
2024-05-09T08:43:46.359Z,4.60
2024-05-09T08:46:18.155Z,2.90
2024-05-09T08:48:49.341Z,5.10
2024-05-09T08:51:18.717Z,3.30
2024-05-09T08:53:47.750Z,5.90
2024-05-09T08:56:18.677Z,2.60
2024-05-09T08:58:49.814Z,5.80
2024-05-09T09:01:19.527Z,3.50
2024-05-09T09:03:51.186Z,5.80
2024-05-09T09:06:21.756Z,2.40
2024-05-09T09:08:51.133Z,1.70
2024-05-09T09:11:20.136Z,3.70
2024-05-09T09:13:49.414Z,3.80
2024-05-09T09:16:18.593Z,3.50
2024-05-09T09:18:48.156Z,4.50
2024-05-09T09:21:17.772Z,2.70
2024-05-09T09:23:46.817Z,5.30
2024-05-09T09:26:16.536Z,5.20
2024-05-09T09:28:46.665Z,4.70
2024-05-09T09:31:19.348Z,3.10
2024-05-09T09:36:18.240Z,3.30
2024-05-09T09:38:47.740Z,3.80
2024-05-09T09:41:17.532Z,4.00
2024-05-09T09:43:47.926Z,3.90
2024-05-09T09:46:19.059Z,2.60
2024-05-09T09:48:48.993Z,2.10
2024-05-09T09:51:19.535Z,3.50
2024-05-09T09:53:52.215Z,6.60
2024-05-09T09:58:51.668Z,6.20
2024-05-09T10:01:20.831Z,2.50
2024-05-09T10:03:50.082Z,5.00
2024-05-09T10:06:19.900Z,5.80
2024-05-09T10:08:50.053Z,2.60
2024-05-09T10:11:22.540Z,2.30
2024-05-09T10:13:53.438Z,4.30
2024-05-09T10:16:23.402Z,5.70
2024-05-09T10:18:52.951Z,2.90
2024-05-09T10:21:21.994Z,3.10
2024-05-09T10:24:01.818Z,2.80
2024-05-09T10:26:33.682Z,2.30
2024-05-09T10:29:17.450Z,2.60
2024-05-09T10:31:47.476Z,3.50
2024-05-09T10:34:22.425Z,2.50
2024-05-09T10:36:56.393Z,4.90
2024-05-09T10:39:25.839Z,3.10
2024-05-09T10:41:54.985Z,3.50
2024-05-09T10:44:23.669Z,2.90
2024-05-09T10:46:54.405Z,1.90
2024-05-09T10:49:23.845Z,4.00
2024-05-09T10:51:52.913Z,3.00
2024-05-09T10:54:22.517Z,5.20
2024-05-09T10:56:58.115Z,2.70
2024-05-09T10:59:35.654Z,3.10
2024-05-09T11:02:07.514Z,2.40
2024-05-09T11:04:38.952Z,4.00
2024-05-09T11:07:17.799Z,2.60
2024-05-09T11:09:48.539Z,1.90
2024-05-09T11:12:19.323Z,1.90
2024-05-09T11:14:55.910Z,2.60
2024-05-09T11:17:25.887Z,3.40
2024-05-09T11:19:55.103Z,2.90
2024-05-09T11:22:31.947Z,2.50
2024-05-09T11:25:00.940Z,3.80
2024-05-09T11:27:31.512Z,2.80
2024-05-09T11:30:01.544Z,4.50
2024-05-09T11:32:30.974Z,3.70
2024-05-09T11:35:00.178Z,5.10
2024-05-09T11:37:30.489Z,2.40
2024-05-09T11:40:00.186Z,2.20
2024-05-09T11:42:29.450Z,3.30
2024-05-09T11:44:58.504Z,3.90
2024-05-09T11:47:27.643Z,5.00
2024-05-09T11:49:56.923Z,7.60
2024-05-09T11:52:25.661Z,3.60
2024-05-09T11:54:54.734Z,6.20
2024-05-09T11:57:24.284Z,2.80
2024-05-09T11:59:52.933Z,3.80
2024-05-09T12:02:21.694Z,4.80
2024-05-09T12:04:51.251Z,2.90
2024-05-09T12:07:20.795Z,3.80
2024-05-09T12:09:49.578Z,3.10
2024-05-09T12:12:18.949Z,3.10
2024-05-09T12:14:47.976Z,8.40
2024-05-09T12:17:17.049Z,4.30
2024-05-09T12:19:46.147Z,2.40
2024-05-09T12:22:15.602Z,3.40
2024-05-09T12:24:44.889Z,4.40
2024-05-09T12:27:14.028Z,2.80
2024-05-09T12:29:43.318Z,5.50
2024-05-09T12:32:12.407Z,4.90
2024-05-09T12:34:41.842Z,3.50
2024-05-09T12:37:11.141Z,4.50
2024-05-09T12:39:39.873Z,4.20
2024-05-09T12:42:10.916Z,4.40
2024-05-09T12:44:41.562Z,3.10
2024-05-09T12:47:10.277Z,4.60
2024-05-09T12:49:39.497Z,3.80
2024-05-09T12:52:08.813Z,3.40
2024-05-09T12:54:38.000Z,3.20
2024-05-09T12:57:07.375Z,3.50
2024-05-09T12:59:36.103Z,15.10
2024-05-09T13:02:05.604Z,10.70
2024-05-09T13:04:35.180Z,3.90
2024-05-09T13:07:07.230Z,5.00
2024-05-09T13:09:36.442Z,15.50
2024-05-09T13:12:05.707Z,4.00
2024-05-09T13:14:34.812Z,4.30
2024-05-09T13:17:05.007Z,6.20
2024-05-09T13:19:34.323Z,4.90
2024-05-09T13:22:04.177Z,6.00
2024-05-09T13:24:33.382Z,3.90
2024-05-09T13:27:02.566Z,6.50
2024-05-09T13:29:31.414Z,3.90
2024-05-09T13:32:00.709Z,4.60
2024-05-09T13:34:29.909Z,4.70
2024-05-09T13:36:59.018Z,3.70
2024-05-09T13:39:28.227Z,3.70
2024-05-09T13:41:57.311Z,4.80
2024-05-09T13:44:26.366Z,12.70
2024-05-09T13:46:55.543Z,3.50
2024-05-09T13:49:24.876Z,5.80
2024-05-09T13:51:54.271Z,6.20
2024-05-09T13:54:23.121Z,9.60
2024-05-09T13:56:52.344Z,6.50
2024-05-09T13:59:20.942Z,3.30
2024-05-09T14:01:52.045Z,5.50
2024-05-09T14:04:21.439Z,2.60
2024-05-09T14:06:50.860Z,3.40
2024-05-09T14:09:20.092Z,3.80
2024-05-09T14:11:49.297Z,3.30
2024-05-09T14:14:17.868Z,3.70
2024-05-09T14:16:47.226Z,7.70
2024-05-09T14:19:16.947Z,3.80
2024-05-09T14:21:46.333Z,4.00
2024-05-09T14:24:15.877Z,6.50
2024-05-09T14:26:44.981Z,4.40
2024-05-09T14:29:14.154Z,5.40
2024-05-09T14:31:43.265Z,2.20
2024-05-09T14:34:12.149Z,4.20
2024-05-09T14:36:41.595Z,4.50
2024-05-09T14:39:10.786Z,4.70
2024-05-09T14:41:40.583Z,9.80
2024-05-09T14:44:11.531Z,3.10
2024-05-09T14:46:41.174Z,3.20
2024-05-09T14:49:12.322Z,7.90
2024-05-09T14:51:46.913Z,3.40
2024-05-09T14:54:16.110Z,2.80
2024-05-09T14:56:45.388Z,4.40
2024-05-09T14:59:14.165Z,2.70
2024-05-09T15:01:43.205Z,4.30
2024-05-09T15:04:12.504Z,2.70
2024-05-09T15:06:42.176Z,9.00
2024-05-09T15:09:11.340Z,4.40
2024-05-09T15:11:40.426Z,7.50
2024-05-09T15:14:09.544Z,2.90
2024-05-09T15:16:39.044Z,4.40
2024-05-09T15:19:08.878Z,7.00
2024-05-09T15:21:38.064Z,6.40
2024-05-09T15:24:07.098Z,8.40
2024-05-09T15:26:36.817Z,5.50
2024-05-09T15:29:06.004Z,5.00
2024-05-09T15:31:35.212Z,9.50
2024-05-09T15:34:04.762Z,5.40
2024-05-09T15:36:34.313Z,4.60
2024-05-09T15:39:03.416Z,4.20
2024-05-09T15:41:32.538Z,7.10
2024-05-09T15:44:01.743Z,5.60
2024-05-09T15:46:30.720Z,5.70
2024-05-09T15:49:02.019Z,4.40
2024-05-09T15:51:34.602Z,3.00
2024-05-09T15:54:03.697Z,4.50
2024-05-09T15:56:32.821Z,6.40
2024-05-09T15:59:03.802Z,2.70
2024-05-09T16:01:35.447Z,4.60
2024-05-09T16:04:05.316Z,7.70
2024-05-09T16:06:34.624Z,4.40
2024-05-09T16:09:04.386Z,5.60
2024-05-09T16:11:34.935Z,3.00
2024-05-09T16:14:04.825Z,8.20
2024-05-09T16:16:34.193Z,4.40
2024-05-09T16:19:02.904Z,3.40
2024-05-09T16:21:31.989Z,6.10
2024-05-09T16:24:01.074Z,10.50
2024-05-09T16:26:29.811Z,8.30
2024-05-09T16:28:58.884Z,3.50
2024-05-09T16:31:28.131Z,4.20
2024-05-09T16:33:57.444Z,4.30
2024-05-09T16:36:26.915Z,3.10
2024-05-09T16:38:57.280Z,3.70
2024-05-09T16:41:26.361Z,4.50
2024-05-09T16:43:57.683Z,3.40
2024-05-09T16:46:28.008Z,6.20
2024-05-09T16:48:57.379Z,3.30
2024-05-09T16:51:26.042Z,2.70
2024-05-09T16:53:55.210Z,3.40
2024-05-09T16:56:24.487Z,7.30
2024-05-09T16:58:53.468Z,2.20
2024-05-09T17:01:22.550Z,4.90
2024-05-09T17:03:51.905Z,3.80
2024-05-09T17:06:21.304Z,6.10
2024-05-09T17:08:50.391Z,3.40
2024-05-09T17:11:19.448Z,5.90
2024-05-09T17:13:48.454Z,2.50
2024-05-09T17:16:18.088Z,5.00
2024-05-09T17:18:48.597Z,4.90
2024-05-09T17:21:18.314Z,5.30
2024-05-09T17:23:47.904Z,4.50
2024-05-09T17:26:16.862Z,5.90
2024-05-09T17:28:46.275Z,2.50
2024-05-09T17:31:15.316Z,3.60
2024-05-09T17:33:44.100Z,3.40
2024-05-09T17:36:13.253Z,3.30
2024-05-09T17:38:42.316Z,4.70
2024-05-09T17:41:11.418Z,4.30
2024-05-09T17:43:40.520Z,2.50
2024-05-09T17:46:09.736Z,6.20
2024-05-09T17:48:38.652Z,3.20
2024-05-09T17:51:07.841Z,7.10
2024-05-09T17:53:36.902Z,4.70
2024-05-09T17:56:07.773Z,2.40
2024-05-09T17:58:36.829Z,2.40
2024-05-09T18:01:05.633Z,3.90
2024-05-09T18:03:34.972Z,8.20
2024-05-09T18:06:05.102Z,5.60
2024-05-09T18:08:35.004Z,2.30
2024-05-09T18:11:04.413Z,4.10
2024-05-09T18:13:33.937Z,4.20
2024-05-09T18:16:03.092Z,6.90
2024-05-09T18:18:33.350Z,5.40
2024-05-09T18:21:02.508Z,2.90
2024-05-09T18:23:32.198Z,5.30
2024-05-09T18:26:01.017Z,4.40
2024-05-09T18:28:29.972Z,4.40
2024-05-09T18:30:59.175Z,2.90
2024-05-09T18:33:28.465Z,7.90
2024-05-09T18:35:57.654Z,5.50
2024-05-09T18:38:27.096Z,4.60
2024-05-09T18:40:56.157Z,4.60
2024-05-09T18:43:31.138Z,2.90
2024-05-09T18:46:04.566Z,5.50
2024-05-09T18:48:34.341Z,9.90
2024-05-09T18:51:05.246Z,7.70
2024-05-09T18:53:34.481Z,5.00
2024-05-09T18:56:03.807Z,6.60
2024-05-09T18:58:33.543Z,6.40
2024-05-09T19:01:02.724Z,4.40
2024-05-09T19:03:31.787Z,13.60
2024-05-09T19:06:01.514Z,7.30
2024-05-09T19:08:30.862Z,8.10
2024-05-09T19:10:59.675Z,11.40
2024-05-09T19:13:28.863Z,23.10
2024-05-09T19:15:57.654Z,9.20
2024-05-09T19:18:27.356Z,9.50
2024-05-09T19:20:56.947Z,7.10
2024-05-09T19:23:25.640Z,9.00
2024-05-09T19:25:54.908Z,8.30
2024-05-09T19:28:24.061Z,6.20
2024-05-09T19:30:53.264Z,5.70
2024-05-09T19:33:22.531Z,9.30
2024-05-09T19:35:51.730Z,10.40
2024-05-09T19:38:20.790Z,14.00
2024-05-09T19:40:50.084Z,16.40
2024-05-09T19:43:19.576Z,9.90
2024-05-09T19:45:48.392Z,6.50
2024-05-09T19:48:17.985Z,6.40
2024-05-09T19:50:48.326Z,5.60
2024-05-09T19:53:20.036Z,7.20
2024-05-09T19:55:49.080Z,7.30
2024-05-09T19:58:18.109Z,4.70
2024-05-09T20:00:47.444Z,7.20
2024-05-09T20:03:16.970Z,7.90
2024-05-09T20:05:46.989Z,8.80
2024-05-09T20:08:16.946Z,5.90
2024-05-09T20:10:46.294Z,6.70
2024-05-09T20:13:16.694Z,6.40
2024-05-09T20:15:45.854Z,10.80
2024-05-09T20:18:18.504Z,11.70
2024-05-09T20:20:48.407Z,6.50
2024-05-09T20:23:18.729Z,7.90
2024-05-09T20:25:47.348Z,7.80
2024-05-09T20:28:16.571Z,24.80
2024-05-09T20:30:45.831Z,15.00
2024-05-09T20:33:15.019Z,15.20
2024-05-09T20:35:44.054Z,5.80
2024-05-09T20:38:13.058Z,9.80
2024-05-09T20:40:43.559Z,8.00
2024-05-09T20:43:13.083Z,9.70
2024-05-09T20:45:42.372Z,9.30
2024-05-09T20:48:11.761Z,9.30
2024-05-09T20:50:42.490Z,8.20
2024-05-09T20:53:13.754Z,8.80
2024-05-09T20:55:44.919Z,6.00
2024-05-09T20:58:14.964Z,9.00
2024-05-09T21:00:46.251Z,8.40
2024-05-09T21:03:17.227Z,14.00
2024-05-09T21:05:48.844Z,9.60
2024-05-09T21:08:18.357Z,7.40
2024-05-09T21:10:47.682Z,45.20
2024-05-09T21:13:16.911Z,9.20
2024-05-09T21:15:46.186Z,7.80
2024-05-09T21:18:15.524Z,14.90
2024-05-09T21:20:44.606Z,59.80
2024-05-09T21:23:13.662Z,8.70
2024-05-09T21:25:42.976Z,9.30
2024-05-09T21:28:13.167Z,10.70
2024-05-09T21:30:43.270Z,11.70
2024-05-09T21:33:14.373Z,10.90
2024-05-09T21:35:44.644Z,12.70
2024-05-09T21:38:14.996Z,12.80
2024-05-09T21:40:45.331Z,10.70
2024-05-09T21:43:14.425Z,10.00
2024-05-09T21:45:43.973Z,13.20
2024-05-09T21:48:13.294Z,10.20
2024-05-09T21:50:42.760Z,29.90
2024-05-09T21:53:13.307Z,24.10
2024-05-09T21:55:43.389Z,21.20
2024-05-09T21:58:15.627Z,12.10
2024-05-09T22:00:46.055Z,10.60
2024-05-09T22:03:15.254Z,13.80
2024-05-09T22:05:45.467Z,21.20
2024-05-09T22:08:14.766Z,12.30
2024-05-09T22:10:44.081Z,12.30
2024-05-09T22:13:13.547Z,15.20
2024-05-09T22:15:42.983Z,14.60
2024-05-09T22:18:12.400Z,13.00
2024-05-09T22:20:45.102Z,39.00
2024-05-09T22:23:15.778Z,51.10
2024-05-09T22:25:44.781Z,31.50
2024-05-09T22:28:15.360Z,17.90
2024-05-09T22:30:46.577Z,18.90
2024-05-09T22:33:16.695Z,13.20
2024-05-09T22:35:45.648Z,14.00
2024-05-09T22:38:14.698Z,13.00
2024-05-09T22:40:48.330Z,55.70
2024-05-09T22:43:22.652Z,29.30
2024-05-09T22:45:56.660Z,13.00
2024-05-09T22:48:29.361Z,11.90
2024-05-09T22:50:58.518Z,12.30
2024-05-09T22:53:28.085Z,17.00
2024-05-09T22:55:57.035Z,12.80
2024-05-09T22:58:25.984Z,46.30
2024-05-09T23:00:55.311Z,28.60
2024-05-09T23:03:24.965Z,13.10
2024-05-09T23:05:56.056Z,11.10
2024-05-09T23:08:25.233Z,13.20
2024-05-09T23:10:53.909Z,12.10
2024-05-09T23:13:23.434Z,20.40
2024-05-09T23:15:52.738Z,15.00
2024-05-09T23:18:22.235Z,10.90
2024-05-09T23:20:51.732Z,26.80
2024-05-09T23:23:21.163Z,46.90
2024-05-09T23:25:50.289Z,49.80
2024-05-09T23:28:19.410Z,63.90
2024-05-09T23:30:48.648Z,10.60
2024-05-09T23:33:18.048Z,18.40
2024-05-09T23:35:46.928Z,20.60
2024-05-09T23:38:16.037Z,28.60
2024-05-09T23:40:45.484Z,23.10
2024-05-09T23:43:15.054Z,15.60
2024-05-09T23:45:44.371Z,12.40
2024-05-09T23:48:13.503Z,19.10
2024-05-09T23:50:42.948Z,14.10
2024-05-09T23:53:13.871Z,15.70
2024-05-09T23:55:42.939Z,16.10
2024-05-09T23:58:12.360Z,13.80
